Airfield :
LOGIN :

Register | Disclaimer

   EN    FR    IT 

 










Legend :    VFR   Marginal VFR   IFR   Intensive IFR   Very Intensive IFR
Visi :
Ceiling :
>= 8 km
>= 3000ft
5 to 8 km
1000 to 3000 ft
1500m to 5 km
500 to 1000 ft
800 to 1500m
200 to 500 ft
< 800m
< 200 ft
Symbols :   Thunderstorms  Fog  Heavy snow  Heavy precipitations  Wind > 20 kt
SIGMETs :     Misc.  Thunderstorms  Icing  Turbulence  Mountain Waves  Volcanic Ashes






- Airport Elevation : 3 ft
- IATA code : LWR


EHLW - Leuuwarden Air Base

CURRENT METAR :
  • 021655Z AUTO 24016KT 9999 FEW032 BKN050 OVC056 08/05 Q1008 BLU

EXPIRED METARs :
  • 021625Z AUTO 25018KT 9999 FEW032 BKN043 OVC048 09/05 Q1008 BLU
  • 021555Z AUTO 25019KT 9999 FEW033 SCT038 BKN044 09/05 Q1008 BLU
  • 021525Z AUTO 25018KT 220V280 9999 FEW019 OVC040 09/05 Q1008 BLU
  • 021459Z AUTO 25019KT 220V280 9999 FEW020 OVC033 09/05 Q1009 BLU
  • 021441Z AUTO 26022KT 9999 FEW020 BKN024 BKN030 09/04 Q1009 WHT
  • 021425Z AUTO 26022KT 230V300 9999 FEW021 SCT025 BKN031 10/04 Q1009 BLU
  • 021401Z AUTO 26022KT 230V290 9999 BKN019 BKN023 10/04 Q1009 WHT
  • 021355Z AUTO 26022KT 230V290 9999 BKN019 OVC022 09/04 Q1009 WHT 25019G29KT 9999 SCT020 BKN035

TAF TAF EHLW
Valid from the 02 at 13:00 until the 03 at 01:00 UTC


021233Z 0213/0301 25020G30KT 9999 SCT022 BKN035
TEMPO 0218/0221 4500 -RA -SHRA FEW015 FEW018CB BKN025
BECMG 0220/0222 29006KT FEW018 SCT045



MET'MAP, your aeronautical weather chart ! - Copyright ORBIFLY December 2007 - Disclaimer

ORBIFLY MET'MAP TEAM :

Programming & Development : Alexandra Zaïnal
Concept & original design : Baudouin d'Aumeries
Assistance for programming : Marc-Olivier Méhu
Technical & hardware support : Manuel Goepfert

Contact : metmap@orbifly.com




SOURCES & CREDITS :

   NOAA